sensor_id;sensor_type;location;lat;lon;timestamp;pressure;altitude;pressure_sealevel;temperature;humidity
20115;BME280;10218;42.874;25.320;2023-03-31T00:00:17;97060.03;;;8.35;53.17
20115;BME280;10218;42.874;25.320;2023-03-31T00:02:45;97050.59;;;8.49;52.56
20115;BME280;10218;42.874;25.320;2023-03-31T00:05:12;97052.06;;;8.35;53.83
20115;BME280;10218;42.874;25.320;2023-03-31T00:07:43;97056.88;;;8.32;54.39
20115;BME280;10218;42.874;25.320;2023-03-31T00:10:12;97051.81;;;8.29;54.95
20115;BME280;10218;42.874;25.320;2023-03-31T00:12:42;97049.50;;;8.26;55.85
20115;BME280;10218;42.874;25.320;2023-03-31T00:15:09;97045.53;;;8.30;55.21
20115;BME280;10218;42.874;25.320;2023-03-31T00:17:37;97034.16;;;8.20;55.94
20115;BME280;10218;42.874;25.320;2023-03-31T00:20:04;97034.78;;;8.05;56.67
20115;BME280;10218;42.874;25.320;2023-03-31T00:22:34;97051.06;;;8.02;57.22
20115;BME280;10218;42.874;25.320;2023-03-31T00:25:04;97041.34;;;7.93;57.74
20115;BME280;10218;42.874;25.320;2023-03-31T00:27:32;97036.75;;;8.03;58.84
20115;BME280;10218;42.874;25.320;2023-03-31T00:29:59;97026.28;;;8.02;58.90
20115;BME280;10218;42.874;25.320;2023-03-31T00:32:26;97015.66;;;8.10;58.09
20115;BME280;10218;42.874;25.320;2023-03-31T00:34:53;97026.41;;;7.92;57.95
20115;BME280;10218;42.874;25.320;2023-03-31T00:37:20;97024.38;;;7.86;58.84
20115;BME280;10218;42.874;25.320;2023-03-31T00:39:48;97031.00;;;7.82;59.50
20115;BME280;10218;42.874;25.320;2023-03-31T00:42:15;97019.59;;;7.64;62.57
20115;BME280;10218;42.874;25.320;2023-03-31T00:47:46;97012.81;;;8.03;60.65
20115;BME280;10218;42.874;25.320;2023-03-31T00:50:17;97009.16;;;8.04;60.98
20115;BME280;10218;42.874;25.320;2023-03-31T00:52:48;96998.56;;;8.21;60.09
20115;BME280;10218;42.874;25.320;2023-03-31T00:55:27;96998.13;;;7.91;60.17
20115;BME280;10218;42.874;25.320;2023-03-31T00:57:57;96998.94;;;7.58;64.34
20115;BME280;10218;42.874;25.320;2023-03-31T01:00:24;96991.69;;;7.68;62.55
20115;BME280;10218;42.874;25.320;2023-03-31T01:02:54;96987.09;;;7.78;62.61
20115;BME280;10218;42.874;25.320;2023-03-31T01:05:49;96974.69;;;7.95;59.65
20115;BME280;10218;42.874;25.320;2023-03-31T01:08:18;96973.56;;;7.97;59.33
20115;BME280;10218;42.874;25.320;2023-03-31T01:10:49;96973.25;;;8.75;53.79
20115;BME280;10218;42.874;25.320;2023-03-31T01:13:17;96979.56;;;8.74;53.72
20115;BME280;10218;42.874;25.320;2023-03-31T01:15:46;96973.75;;;8.62;53.70
20115;BME280;10218;42.874;25.320;2023-03-31T01:18:13;96973.88;;;8.36;56.11
20115;BME280;10218;42.874;25.320;2023-03-31T01:21:14;96979.62;;;8.24;57.83
20115;BME280;10218;42.874;25.320;2023-03-31T01:24:07;96969.91;;;8.56;54.73
20115;BME280;10218;42.874;25.320;2023-03-31T01:38:30;96951.28;;;8.97;52.39
20115;BME280;10218;42.874;25.320;2023-03-31T01:44:18;96951.44;;;9.12;52.68
20115;BME280;10218;42.874;25.320;2023-03-31T01:49:23;96937.47;;;8.93;53.59
20115;BME280;10218;42.874;25.320;2023-03-31T01:54:48;96928.47;;;9.02;53.23
20115;BME280;10218;42.874;25.320;2023-03-31T01:57:32;96918.34;;;8.57;55.32
20115;BME280;10218;42.874;25.320;2023-03-31T02:02:52;96916.59;;;8.24;59.02
20115;BME280;10218;42.874;25.320;2023-03-31T02:05:23;96925.69;;;8.13;60.43
20115;BME280;10218;42.874;25.320;2023-03-31T02:07:55;96917.84;;;7.96;63.29
20115;BME280;10218;42.874;25.320;2023-03-31T02:10:26;96914.06;;;8.14;62.08
20115;BME280;10218;42.874;25.320;2023-03-31T02:12:58;96909.88;;;8.04;63.63
20115;BME280;10218;42.874;25.320;2023-03-31T02:15:29;96914.63;;;7.76;66.63
20115;BME280;10218;42.874;25.320;2023-03-31T02:18:02;96902.12;;;7.68;68.40
20115;BME280;10218;42.874;25.320;2023-03-31T02:20:31;96920.31;;;7.81;68.00
20115;BME280;10218;42.874;25.320;2023-03-31T02:23:00;96926.62;;;7.88;68.56
20115;BME280;10218;42.874;25.320;2023-03-31T02:25:37;96929.13;;;7.82;70.59
20115;BME280;10218;42.874;25.320;2023-03-31T02:28:09;96929.37;;;8.12;67.26
20115;BME280;10218;42.874;25.320;2023-03-31T02:33:17;96932.06;;;7.70;71.08
20115;BME280;10218;42.874;25.320;2023-03-31T02:35:44;96926.81;;;7.53;73.61
20115;BME280;10218;42.874;25.320;2023-03-31T02:38:11;96936.47;;;7.62;72.95
20115;BME280;10218;42.874;25.320;2023-03-31T02:40:39;96933.94;;;7.86;70.42
20115;BME280;10218;42.874;25.320;2023-03-31T02:43:06;96931.31;;;7.94;68.30
20115;BME280;10218;42.874;25.320;2023-03-31T02:45:40;96935.50;;;8.13;66.84
20115;BME280;10218;42.874;25.320;2023-03-31T02:48:32;96932.97;;;7.87;69.91
20115;BME280;10218;42.874;25.320;2023-03-31T02:53:52;96942.09;;;7.93;71.02
20115;BME280;10218;42.874;25.320;2023-03-31T02:56:55;96944.06;;;7.83;73.63
20115;BME280;10218;42.874;25.320;2023-03-31T02:59:48;96943.25;;;7.90;71.92
20115;BME280;10218;42.874;25.320;2023-03-31T03:10:59;96956.16;;;8.19;72.22
20115;BME280;10218;42.874;25.320;2023-03-31T03:16:15;96965.59;;;8.05;74.94
20115;BME280;10218;42.874;25.320;2023-03-31T03:18:55;96968.03;;;7.91;75.97
20115;BME280;10218;42.874;25.320;2023-03-31T03:21:23;96963.28;;;8.10;74.51
20115;BME280;10218;42.874;25.320;2023-03-31T03:23:50;96972.09;;;8.11;73.32
20115;BME280;10218;42.874;25.320;2023-03-31T03:26:18;96975.59;;;8.11;75.02
20115;BME280;10218;42.874;25.320;2023-03-31T03:28:50;96978.31;;;8.28;74.15
20115;BME280;10218;42.874;25.320;2023-03-31T03:31:18;96987.78;;;8.22;74.62
20115;BME280;10218;42.874;25.320;2023-03-31T03:33:45;96992.75;;;8.17;74.41
20115;BME280;10218;42.874;25.320;2023-03-31T03:36:12;96997.19;;;8.08;77.88
20115;BME280;10218;42.874;25.320;2023-03-31T03:38:39;97017.47;;;8.01;78.07
20115;BME280;10218;42.874;25.320;2023-03-31T03:41:07;97011.50;;;8.07;79.48
20115;BME280;10218;42.874;25.320;2023-03-31T03:43:34;97011.63;;;8.40;76.65
20115;BME280;10218;42.874;25.320;2023-03-31T03:46:01;97013.22;;;8.67;73.74
20115;BME280;10218;42.874;25.320;2023-03-31T03:48:28;97019.88;;;8.29;72.69
20115;BME280;10218;42.874;25.320;2023-03-31T03:50:59;97016.97;;;8.06;76.03
20115;BME280;10218;42.874;25.320;2023-03-31T03:53:26;97025.03;;;7.88;78.66
20115;BME280;10218;42.874;25.320;2023-03-31T03:55:53;97021.09;;;7.92;84.08
20115;BME280;10218;42.874;25.320;2023-03-31T03:58:20;97027.34;;;8.17;83.64
20115;BME280;10218;42.874;25.320;2023-03-31T04:00:47;97032.09;;;8.31;79.83
20115;BME280;10218;42.874;25.320;2023-03-31T04:03:15;97033.41;;;8.35;77.79
20115;BME280;10218;42.874;25.320;2023-03-31T04:05:42;97031.94;;;8.33;77.51
20115;BME280;10218;42.874;25.320;2023-03-31T04:08:09;97050.19;;;8.28;77.25
20115;BME280;10218;42.874;25.320;2023-03-31T04:10:36;97050.94;;;8.12;80.57
20115;BME280;10218;42.874;25.320;2023-03-31T04:13:03;97056.56;;;8.09;84.06
20115;BME280;10218;42.874;25.320;2023-03-31T04:15:30;97057.81;;;8.23;83.13
20115;BME280;10218;42.874;25.320;2023-03-31T04:17:58;97063.47;;;8.28;80.55
20115;BME280;10218;42.874;25.320;2023-03-31T04:20:24;97053.06;;;8.08;83.18
20115;BME280;10218;42.874;25.320;2023-03-31T04:22:56;97053.13;;;8.25;80.82
20115;BME280;10218;42.874;25.320;2023-03-31T04:25:23;97044.13;;;8.59;77.39
20115;BME280;10218;42.874;25.320;2023-03-31T04:27:51;97043.97;;;8.61;75.63
20115;BME280;10218;42.874;25.320;2023-03-31T04:30:22;97042.13;;;8.11;82.75
20115;BME280;10218;42.874;25.320;2023-03-31T04:32:55;97040.62;;;8.43;80.32
20115;BME280;10218;42.874;25.320;2023-03-31T04:35:23;97042.34;;;8.26;82.58
20115;BME280;10218;42.874;25.320;2023-03-31T04:37:52;97041.91;;;8.39;82.49
20115;BME280;10218;42.874;25.320;2023-03-31T04:40:24;97032.34;;;8.70;81.39
20115;BME280;10218;42.874;25.320;2023-03-31T04:42:52;97041.50;;;8.84;78.00
20115;BME280;10218;42.874;25.320;2023-03-31T04:45:19;97033.19;;;8.63;79.38
20115;BME280;10218;42.874;25.320;2023-03-31T04:47:45;97040.19;;;8.80;77.43
20115;BME280;10218;42.874;25.320;2023-03-31T04:50:13;97029.28;;;8.49;83.06
20115;BME280;10218;42.874;25.320;2023-03-31T04:52:41;97027.03;;;8.94;84.90
20115;BME280;10218;42.874;25.320;2023-03-31T04:55:09;97024.56;;;8.93;79.38
20115;BME280;10218;42.874;25.320;2023-03-31T04:57:36;97019.00;;;8.54;90.21
20115;BME280;10218;42.874;25.320;2023-03-31T05:00:04;97018.84;;;8.64;87.50
20115;BME280;10218;42.874;25.320;2023-03-31T05:02:33;97022.38;;;8.80;85.11
20115;BME280;10218;42.874;25.320;2023-03-31T05:05:01;97014.75;;;8.93;83.14
20115;BME280;10218;42.874;25.320;2023-03-31T05:07:28;97008.72;;;9.40;77.64
20115;BME280;10218;42.874;25.320;2023-03-31T05:09:55;97008.59;;;9.17;79.76
20115;BME280;10218;42.874;25.320;2023-03-31T05:12:22;97008.75;;;9.24;79.06
20115;BME280;10218;42.874;25.320;2023-03-31T05:14:49;96996.72;;;8.79;87.62
20115;BME280;10218;42.874;25.320;2023-03-31T05:17:16;96999.25;;;8.97;84.71
20115;BME280;10218;42.874;25.320;2023-03-31T05:19:43;96977.44;;;9.18;81.90
20115;BME280;10218;42.874;25.320;2023-03-31T05:22:11;96979.91;;;9.35;84.07
20115;BME280;10218;42.874;25.320;2023-03-31T05:24:38;96982.06;;;9.32;87.34
20115;BME280;10218;42.874;25.320;2023-03-31T05:27:05;96983.41;;;9.20;91.31
20115;BME280;10218;42.874;25.320;2023-03-31T05:29:32;96976.22;;;8.64;98.66
20115;BME280;10218;42.874;25.320;2023-03-31T05:31:59;96983.75;;;8.76;94.75
20115;BME280;10218;42.874;25.320;2023-03-31T05:34:27;96988.75;;;8.87;89.43
20115;BME280;10218;42.874;25.320;2023-03-31T05:36:54;96995.56;;;8.66;90.60
20115;BME280;10218;42.874;25.320;2023-03-31T05:39:21;96997.22;;;8.75;94.36
20115;BME280;10218;42.874;25.320;2023-03-31T05:41:49;96993.25;;;8.87;97.65
20115;BME280;10218;42.874;25.320;2023-03-31T05:44:16;96996.56;;;9.05;94.31
20115;BME280;10218;42.874;25.320;2023-03-31T05:46:43;96989.09;;;9.17;90.05
20115;BME280;10218;42.874;25.320;2023-03-31T05:49:10;96985.75;;;8.82;99.82
20115;BME280;10218;42.874;25.320;2023-03-31T05:51:37;96982.09;;;9.16;94.80
20115;BME280;10218;42.874;25.320;2023-03-31T05:54:04;96970.41;;;9.25;97.88
20115;BME280;10218;42.874;25.320;2023-03-31T05:56:32;96982.28;;;9.14;92.85
20115;BME280;10218;42.874;25.320;2023-03-31T05:59:00;96970.44;;;9.17;92.73
20115;BME280;10218;42.874;25.320;2023-03-31T06:01:27;96965.78;;;9.19;96.93
20115;BME280;10218;42.874;25.320;2023-03-31T06:03:56;96968.88;;;9.55;93.93
20115;BME280;10218;42.874;25.320;2023-03-31T06:06:23;96952.72;;;9.48;85.66
20115;BME280;10218;42.874;25.320;2023-03-31T06:08:51;96944.56;;;9.41;94.30
20115;BME280;10218;42.874;25.320;2023-03-31T06:11:20;96949.22;;;9.48;93.89
20115;BME280;10218;42.874;25.320;2023-03-31T06:13:47;96948.75;;;9.44;97.01
20115;BME280;10218;42.874;25.320;2023-03-31T06:16:18;96948.53;;;9.45;100.00
20115;BME280;10218;42.874;25.320;2023-03-31T06:18:45;96937.87;;;9.54;100.00
20115;BME280;10218;42.874;25.320;2023-03-31T06:21:14;96949.53;;;9.53;100.00
20115;BME280;10218;42.874;25.320;2023-03-31T06:23:43;96951.34;;;9.68;100.00
20115;BME280;10218;42.874;25.320;2023-03-31T06:26:13;96947.06;;;9.43;100.00
20115;BME280;10218;42.874;25.320;2023-03-31T06:28:41;96948.50;;;9.70;100.00
20115;BME280;10218;42.874;25.320;2023-03-31T06:31:11;96935.97;;;9.78;100.00
20115;BME280;10218;42.874;25.320;2023-03-31T06:33:40;96945.41;;;9.42;100.00
20115;BME280;10218;42.874;25.320;2023-03-31T06:36:08;96942.03;;;9.56;100.00
20115;BME280;10218;42.874;25.320;2023-03-31T06:38:36;96952.06;;;9.46;100.00
20115;BME280;10218;42.874;25.320;2023-03-31T06:41:07;96952.66;;;9.72;100.00
20115;BME280;10218;42.874;25.320;2023-03-31T06:43:34;96946.78;;;9.85;100.00
20115;BME280;10218;42.874;25.320;2023-03-31T06:46:01;96953.13;;;9.76;100.00
20115;BME280;10218;42.874;25.320;2023-03-31T06:48:29;96952.37;;;9.59;100.00
20115;BME280;10218;42.874;25.320;2023-03-31T06:50:59;96956.50;;;9.70;100.00
20115;BME280;10218;42.874;25.320;2023-03-31T06:53:27;96957.00;;;9.73;100.00
20115;BME280;10218;42.874;25.320;2023-03-31T06:55:55;96962.00;;;9.60;100.00
20115;BME280;10218;42.874;25.320;2023-03-31T06:58:22;96955.28;;;9.80;100.00
20115;BME280;10218;42.874;25.320;2023-03-31T07:00:49;96954.31;;;9.73;100.00
20115;BME280;10218;42.874;25.320;2023-03-31T07:03:16;96954.38;;;9.57;100.00
20115;BME280;10218;42.874;25.320;2023-03-31T07:05:48;96957.63;;;9.83;100.00
20115;BME280;10218;42.874;25.320;2023-03-31T07:08:16;96945.59;;;9.87;100.00
20115;BME280;10218;42.874;25.320;2023-03-31T07:10:44;96957.78;;;9.82;100.00
20115;BME280;10218;42.874;25.320;2023-03-31T07:13:17;96950.56;;;9.91;100.00
20115;BME280;10218;42.874;25.320;2023-03-31T07:15:48;96940.53;;;10.01;100.00
20115;BME280;10218;42.874;25.320;2023-03-31T07:18:16;96941.12;;;10.11;100.00
20115;BME280;10218;42.874;25.320;2023-03-31T07:20:48;96940.75;;;10.30;100.00
20115;BME280;10218;42.874;25.320;2023-03-31T07:23:19;96937.75;;;10.56;100.00
20115;BME280;10218;42.874;25.320;2023-03-31T07:25:47;96936.63;;;10.73;100.00
20115;BME280;10218;42.874;25.320;2023-03-31T07:28:15;96923.63;;;11.07;100.00
20115;BME280;10218;42.874;25.320;2023-03-31T07:30:42;96917.94;;;11.10;100.00
20115;BME280;10218;42.874;25.320;2023-03-31T07:33:09;96925.81;;;11.41;100.00
20115;BME280;10218;42.874;25.320;2023-03-31T07:35:38;96928.19;;;11.22;100.00
20115;BME280;10218;42.874;25.320;2023-03-31T07:38:07;96920.38;;;11.35;100.00
20115;BME280;10218;42.874;25.320;2023-03-31T07:40:36;96913.28;;;11.56;100.00
20115;BME280;10218;42.874;25.320;2023-03-31T07:43:03;96900.91;;;11.55;100.00
20115;BME280;10218;42.874;25.320;2023-03-31T07:45:31;96905.72;;;11.89;100.00
20115;BME280;10218;42.874;25.320;2023-03-31T07:47:59;96896.44;;;12.21;100.00
20115;BME280;10218;42.874;25.320;2023-03-31T07:50:26;96892.41;;;12.11;100.00
20115;BME280;10218;42.874;25.320;2023-03-31T07:52:53;96893.41;;;12.10;100.00
20115;BME280;10218;42.874;25.320;2023-03-31T07:55:21;96890.66;;;12.18;100.00
20115;BME280;10218;42.874;25.320;2023-03-31T07:57:49;96875.66;;;12.44;100.00
20115;BME280;10218;42.874;25.320;2023-03-31T08:00:17;96880.00;;;12.67;100.00
20115;BME280;10218;42.874;25.320;2023-03-31T08:02:45;96872.53;;;13.05;100.00
20115;BME280;10218;42.874;25.320;2023-03-31T08:05:14;96883.78;;;13.15;100.00
20115;BME280;10218;42.874;25.320;2023-03-31T08:07:43;96881.91;;;12.94;100.00
20115;BME280;10218;42.874;25.320;2023-03-31T08:10:18;96879.56;;;12.84;100.00
20115;BME280;10218;42.874;25.320;2023-03-31T08:12:46;96883.44;;;13.31;100.00
20115;BME280;10218;42.874;25.320;2023-03-31T08:15:14;96870.72;;;13.40;100.00
20115;BME280;10218;42.874;25.320;2023-03-31T08:17:42;96870.94;;;13.79;100.00
20115;BME280;10218;42.874;25.320;2023-03-31T08:20:09;96867.09;;;14.49;100.00
20115;BME280;10218;42.874;25.320;2023-03-31T08:22:38;96867.34;;;14.80;100.00
20115;BME280;10218;42.874;25.320;2023-03-31T08:25:07;96865.59;;;13.79;100.00
20115;BME280;10218;42.874;25.320;2023-03-31T08:27:35;96866.00;;;13.76;100.00
20115;BME280;10218;42.874;25.320;2023-03-31T08:30:04;96845.91;;;13.65;100.00
20115;BME280;10218;42.874;25.320;2023-03-31T08:32:33;96861.09;;;13.52;100.00
20115;BME280;10218;42.874;25.320;2023-03-31T08:35:00;96869.41;;;14.04;100.00
20115;BME280;10218;42.874;25.320;2023-03-31T08:37:27;96863.28;;;14.24;100.00
20115;BME280;10218;42.874;25.320;2023-03-31T08:39:54;96854.25;;;14.38;100.00
20115;BME280;10218;42.874;25.320;2023-03-31T08:45:02;96849.12;;;14.63;97.95
20115;BME280;10218;42.874;25.320;2023-03-31T08:47:31;96843.34;;;14.52;86.90
20115;BME280;10218;42.874;25.320;2023-03-31T08:50:10;96840.84;;;15.30;88.66
20115;BME280;10218;42.874;25.320;2023-03-31T08:52:46;96843.88;;;15.79;74.86
20115;BME280;10218;42.874;25.320;2023-03-31T08:55:30;96837.13;;;16.02;71.14
20115;BME280;10218;42.874;25.320;2023-03-31T09:00:48;96826.94;;;16.10;70.77
20115;BME280;10218;42.874;25.320;2023-03-31T09:03:25;96821.56;;;15.59;70.51
20115;BME280;10218;42.874;25.320;2023-03-31T09:06:04;96816.06;;;16.30;64.51
20115;BME280;10218;42.874;25.320;2023-03-31T09:08:38;96815.97;;;16.43;66.69
20115;BME280;10218;42.874;25.320;2023-03-31T09:13:55;96802.22;;;15.75;63.94
20115;BME280;10218;42.874;25.320;2023-03-31T09:16:31;96795.84;;;16.14;63.69
20115;BME280;10218;42.874;25.320;2023-03-31T09:19:01;96797.78;;;16.70;60.93
20115;BME280;10218;42.874;25.320;2023-03-31T09:24:14;96789.28;;;16.66;56.97
20115;BME280;10218;42.874;25.320;2023-03-31T09:26:54;96783.97;;;16.60;57.38
20115;BME280;10218;42.874;25.320;2023-03-31T09:29:42;96764.25;;;16.59;57.59
20115;BME280;10218;42.874;25.320;2023-03-31T09:32:27;96765.97;;;16.47;60.96
20115;BME280;10218;42.874;25.320;2023-03-31T09:34:59;96768.69;;;17.40;57.13
20115;BME280;10218;42.874;25.320;2023-03-31T09:37:30;96753.47;;;18.12;56.03
20115;BME280;10218;42.874;25.320;2023-03-31T09:39:59;96763.53;;;18.34;54.36
20115;BME280;10218;42.874;25.320;2023-03-31T09:42:37;96760.41;;;19.60;51.60
20115;BME280;10218;42.874;25.320;2023-03-31T09:45:04;96758.16;;;19.97;49.71
20115;BME280;10218;42.874;25.320;2023-03-31T09:47:43;96739.28;;;21.26;47.32
20115;BME280;10218;42.874;25.320;2023-03-31T09:50:11;96738.41;;;20.42;45.82
20115;BME280;10218;42.874;25.320;2023-03-31T09:52:41;96734.03;;;21.41;45.66
20115;BME280;10218;42.874;25.320;2023-03-31T09:55:17;96724.91;;;22.39;43.14
20115;BME280;10218;42.874;25.320;2023-03-31T09:57:51;96723.19;;;21.41;44.15
20115;BME280;10218;42.874;25.320;2023-03-31T10:00:21;96723.22;;;22.60;41.40
20115;BME280;10218;42.874;25.320;2023-03-31T10:02:56;96720.81;;;23.42;40.36
20115;BME280;10218;42.874;25.320;2023-03-31T10:05:32;96725.16;;;21.29;42.58
20115;BME280;10218;42.874;25.320;2023-03-31T10:10:43;96717.88;;;21.95;41.49
20115;BME280;10218;42.874;25.320;2023-03-31T10:13:16;96716.81;;;19.90;43.16
20115;BME280;10218;42.874;25.320;2023-03-31T10:15:45;96717.16;;;19.31;45.21
20115;BME280;10218;42.874;25.320;2023-03-31T10:18:17;96706.22;;;19.26;44.59
20115;BME280;10218;42.874;25.320;2023-03-31T10:20:51;96715.78;;;19.28;45.35
20115;BME280;10218;42.874;25.320;2023-03-31T10:25:48;96723.34;;;18.50;46.65
20115;BME280;10218;42.874;25.320;2023-03-31T10:28:17;96713.78;;;19.00;45.50
20115;BME280;10218;42.874;25.320;2023-03-31T10:30:51;96710.63;;;18.27;46.28
20115;BME280;10218;42.874;25.320;2023-03-31T10:33:23;96715.63;;;17.82;46.53
20115;BME280;10218;42.874;25.320;2023-03-31T10:35:56;96712.31;;;18.51;46.18
20115;BME280;10218;42.874;25.320;2023-03-31T10:38:40;96721.66;;;18.25;45.69
20115;BME280;10218;42.874;25.320;2023-03-31T10:41:10;96712.22;;;18.16;45.97
20115;BME280;10218;42.874;25.320;2023-03-31T10:43:40;96708.87;;;18.44;45.76
20115;BME280;10218;42.874;25.320;2023-03-31T10:46:08;96703.97;;;18.53;45.32
20115;BME280;10218;42.874;25.320;2023-03-31T10:48:39;96699.06;;;18.96;44.35
20115;BME280;10218;42.874;25.320;2023-03-31T10:51:29;96698.13;;;18.67;45.04
20115;BME280;10218;42.874;25.320;2023-03-31T10:54:00;96703.56;;;19.02;44.75
20115;BME280;10218;42.874;25.320;2023-03-31T10:56:42;96691.06;;;18.55;45.23
20115;BME280;10218;42.874;25.320;2023-03-31T11:30:03;96666.12;;;18.88;44.37
20115;BME280;10218;42.874;25.320;2023-03-31T11:46:04;96647.50;;;19.14;43.83
20115;BME280;10218;42.874;25.320;2023-03-31T11:51:12;96644.56;;;18.46;45.25
20115;BME280;10218;42.874;25.320;2023-03-31T11:53:41;96631.06;;;18.81;44.60
20115;BME280;10218;42.874;25.320;2023-03-31T11:56:11;96622.97;;;18.58;45.27
20115;BME280;10218;42.874;25.320;2023-03-31T11:58:43;96632.13;;;18.92;45.25
20115;BME280;10218;42.874;25.320;2023-03-31T12:01:32;96623.06;;;18.74;44.92
20115;BME280;10218;42.874;25.320;2023-03-31T12:04:04;96619.53;;;18.86;45.12
20115;BME280;10218;42.874;25.320;2023-03-31T12:06:38;96607.78;;;19.32;44.48
20115;BME280;10218;42.874;25.320;2023-03-31T12:09:13;96615.63;;;18.47;45.77
20115;BME280;10218;42.874;25.320;2023-03-31T12:15:16;96598.88;;;19.19;44.70
20115;BME280;10218;42.874;25.320;2023-03-31T12:17:32;96598.69;;;18.98;45.26
20115;BME280;10218;42.874;25.320;2023-03-31T12:20:04;96596.44;;;18.95;46.13
20115;BME280;10218;42.874;25.320;2023-03-31T12:22:42;96595.66;;;18.71;46.04
20115;BME280;10218;42.874;25.320;2023-03-31T12:25:15;96591.28;;;19.90;44.44
20115;BME280;10218;42.874;25.320;2023-03-31T12:27:45;96597.09;;;19.65;44.04
20115;BME280;10218;42.874;25.320;2023-03-31T12:30:34;96583.81;;;19.97;43.73
20115;BME280;10218;42.874;25.320;2023-03-31T12:33:27;96581.13;;;20.47;42.82
20115;BME280;10218;42.874;25.320;2023-03-31T12:45:19;96566.25;;;20.33;42.50
20115;BME280;10218;42.874;25.320;2023-03-31T12:56:21;96559.00;;;21.91;39.31
20115;BME280;10218;42.874;25.320;2023-03-31T12:58:48;96557.34;;;20.54;41.28
20115;BME280;10218;42.874;25.320;2023-03-31T13:01:23;96561.13;;;19.86;42.27
20115;BME280;10218;42.874;25.320;2023-03-31T13:04:06;96549.00;;;20.39;42.38
20115;BME280;10218;42.874;25.320;2023-03-31T13:09:05;96550.75;;;21.27;40.51
20115;BME280;10218;42.874;25.320;2023-03-31T13:11:37;96560.16;;;21.68;40.35
20115;BME280;10218;42.874;25.320;2023-03-31T13:14:14;96553.53;;;20.33;41.70
20115;BME280;10218;42.874;25.320;2023-03-31T13:16:42;96551.84;;;19.66;42.60
20115;BME280;10218;42.874;25.320;2023-03-31T13:19:33;96552.12;;;19.24;43.55
20115;BME280;10218;42.874;25.320;2023-03-31T13:22:03;96547.81;;;20.01;42.53
20115;BME280;10218;42.874;25.320;2023-03-31T13:24:32;96547.84;;;20.35;41.08
20115;BME280;10218;42.874;25.320;2023-03-31T13:27:34;96551.38;;;20.74;39.51
20115;BME280;10218;42.874;25.320;2023-03-31T13:30:01;96541.66;;;20.56;40.03
20115;BME280;10218;42.874;25.320;2023-03-31T13:32:29;96534.84;;;21.67;38.62
20115;BME280;10218;42.874;25.320;2023-03-31T13:35:05;96528.56;;;20.53;39.29
20115;BME280;10218;42.874;25.320;2023-03-31T13:46:48;96515.94;;;19.58;41.77
20115;BME280;10218;42.874;25.320;2023-03-31T13:51:58;96506.31;;;19.22;42.94
20115;BME280;10218;42.874;25.320;2023-03-31T13:57:26;96515.88;;;19.42;43.57
20115;BME280;10218;42.874;25.320;2023-03-31T14:03:05;96501.16;;;19.83;43.06
20115;BME280;10218;42.874;25.320;2023-03-31T14:05:42;96498.91;;;19.46;43.13
20115;BME280;10218;42.874;25.320;2023-03-31T14:11:22;96508.72;;;19.64;43.48
20115;BME280;10218;42.874;25.320;2023-03-31T14:14:08;96500.91;;;18.94;44.16
20115;BME280;10218;42.874;25.320;2023-03-31T14:16:50;96490.47;;;20.26;42.92
20115;BME280;10218;42.874;25.320;2023-03-31T14:28:26;96478.44;;;22.16;39.26
20115;BME280;10218;42.874;25.320;2023-03-31T14:31:18;96475.16;;;22.61;38.49
20115;BME280;10218;42.874;25.320;2023-03-31T14:36:37;96473.06;;;24.52;35.67
20115;BME280;10218;42.874;25.320;2023-03-31T14:39:16;96483.91;;;25.37;33.90
20115;BME280;10218;42.874;25.320;2023-03-31T14:41:54;96460.47;;;24.61;34.86
20115;BME280;10218;42.874;25.320;2023-03-31T14:44:24;96461.88;;;26.35;32.59
20115;BME280;10218;42.874;25.320;2023-03-31T14:46:55;96471.63;;;25.78;33.84
20115;BME280;10218;42.874;25.320;2023-03-31T14:49:28;96464.78;;;24.88;34.78
20115;BME280;10218;42.874;25.320;2023-03-31T14:52:03;96474.44;;;24.29;35.40
20115;BME280;10218;42.874;25.320;2023-03-31T14:54:37;96472.28;;;23.71;36.29
20115;BME280;10218;42.874;25.320;2023-03-31T14:57:05;96455.94;;;22.78;37.66
20115;BME280;10218;42.874;25.320;2023-03-31T14:59:34;96470.78;;;21.18;39.18
20115;BME280;10218;42.874;25.320;2023-03-31T15:02:04;96466.09;;;20.91;40.06
20115;BME280;10218;42.874;25.320;2023-03-31T15:04:38;96467.34;;;20.62;41.19
20115;BME280;10218;42.874;25.320;2023-03-31T15:07:11;96473.09;;;19.55;43.24
20115;BME280;10218;42.874;25.320;2023-03-31T15:09:39;96467.22;;;19.97;43.04
20115;BME280;10218;42.874;25.320;2023-03-31T15:12:12;96468.72;;;20.04;42.68
20115;BME280;10218;42.874;25.320;2023-03-31T15:14:47;96466.22;;;20.20;42.10
20115;BME280;10218;42.874;25.320;2023-03-31T15:17:21;96472.59;;;21.12;41.01
20115;BME280;10218;42.874;25.320;2023-03-31T15:19:54;96471.53;;;22.98;38.40
20115;BME280;10218;42.874;25.320;2023-03-31T15:22:24;96474.97;;;23.46;36.59
20115;BME280;10218;42.874;25.320;2023-03-31T15:24:52;96466.31;;;21.65;40.04
20115;BME280;10218;42.874;25.320;2023-03-31T15:27:34;96473.19;;;21.41;40.21
20115;BME280;10218;42.874;25.320;2023-03-31T15:30:07;96464.63;;;21.91;39.83
20115;BME280;10218;42.874;25.320;2023-03-31T15:32:36;96463.06;;;22.37;38.50
20115;BME280;10218;42.874;25.320;2023-03-31T15:35:06;96463.84;;;22.75;37.72
20115;BME280;10218;42.874;25.320;2023-03-31T15:37:46;96472.66;;;21.17;39.65
20115;BME280;10218;42.874;25.320;2023-03-31T15:40:24;96464.31;;;22.14;38.46
20115;BME280;10218;42.874;25.320;2023-03-31T15:42:57;96467.97;;;22.40;37.67
20115;BME280;10218;42.874;25.320;2023-03-31T15:47:55;96475.28;;;20.47;41.23
20115;BME280;10218;42.874;25.320;2023-03-31T15:50:23;96478.22;;;19.12;43.45
20115;BME280;10218;42.874;25.320;2023-03-31T15:52:55;96470.53;;;18.92;44.20
20115;BME280;10218;42.874;25.320;2023-03-31T15:55:38;96472.84;;;20.29;41.92
20115;BME280;10218;42.874;25.320;2023-03-31T15:58:11;96473.34;;;19.71;42.58